createdAt,value
2022-11-22T00:00:13.600Z,10.50
2022-11-22T00:04:18.412Z,10.60
2022-11-22T00:08:23.418Z,10.57
2022-11-22T00:12:28.246Z,10.63
2022-11-22T00:16:34.564Z,10.97
2022-11-22T00:20:39.374Z,10.90
2022-11-22T00:24:46.272Z,10.80
2022-11-22T00:28:51.392Z,10.30
2022-11-22T00:32:56.322Z,10.80
2022-11-22T00:37:01.148Z,10.50
2022-11-22T00:41:06.022Z,9.73
2022-11-22T00:45:11.272Z,10.90
2022-11-22T00:49:16.142Z,9.97
2022-11-22T00:53:20.985Z,11.90
2022-11-22T00:57:25.886Z,10.60
2022-11-22T01:01:30.953Z,11.17
2022-11-22T01:05:35.986Z,10.50
2022-11-22T01:09:40.798Z,11.27
2022-11-22T01:13:45.871Z,10.97
2022-11-22T01:17:50.678Z,9.77
2022-11-22T01:21:55.534Z,9.77
2022-11-22T01:26:00.640Z,9.70
2022-11-22T01:30:06.449Z,9.77
2022-11-22T01:34:11.457Z,10.40
2022-11-22T01:38:16.466Z,10.87
2022-11-22T01:42:21.282Z,10.80
2022-11-22T01:46:34.580Z,10.17
2022-11-22T01:50:44.287Z,10.80
2022-11-22T01:55:11.313Z,10.60
2022-11-22T01:59:21.355Z,7.30
2022-11-22T02:03:28.915Z,10.47
2022-11-22T02:08:14.007Z,9.10
2022-11-22T02:12:23.908Z,9.50
2022-11-22T02:16:29.453Z,9.60
2022-11-22T02:20:34.305Z,10.70
2022-11-22T02:24:49.389Z,9.90
2022-11-22T02:29:00.214Z,9.77
2022-11-22T02:33:05.562Z,9.90
2022-11-22T02:37:12.872Z,10.10
2022-11-22T02:41:17.985Z,9.97
2022-11-22T02:45:22.860Z,10.17
2022-11-22T02:49:27.999Z,9.83
2022-11-22T02:53:33.344Z,9.47
2022-11-22T02:57:38.133Z,9.53
2022-11-22T03:01:44.761Z,11.07
2022-11-22T03:05:49.601Z,10.10
2022-11-22T03:09:54.506Z,10.57
2022-11-22T03:13:59.384Z,10.40
2022-11-22T03:18:05.207Z,10.70
2022-11-22T03:22:11.676Z,9.37
2022-11-22T03:26:16.665Z,9.93
2022-11-22T03:30:21.558Z,8.40
2022-11-22T03:34:26.430Z,10.20
2022-11-22T03:38:31.784Z,9.80
2022-11-22T03:42:36.591Z,10.00
2022-11-22T03:46:41.489Z,9.83
2022-11-22T03:50:46.342Z,10.13
2022-11-22T03:54:51.268Z,10.30
2022-11-22T03:58:56.169Z,9.80
2022-11-22T04:03:01.118Z,10.63
2022-11-22T04:07:06.014Z,8.90
2022-11-22T04:11:10.873Z,9.80
2022-11-22T04:15:15.838Z,9.03
2022-11-22T04:19:20.665Z,10.00
2022-11-22T04:23:32.328Z,9.33
2022-11-22T04:27:38.794Z,9.90
2022-11-22T04:32:02.384Z,7.73
2022-11-22T04:36:13.016Z,8.70
2022-11-22T04:40:18.381Z,9.60
2022-11-22T04:44:41.162Z,8.10
2022-11-22T04:48:46.035Z,10.83
2022-11-22T04:52:54.659Z,9.33
2022-11-22T04:56:59.521Z,9.60
2022-11-22T05:01:04.417Z,10.13
2022-11-22T05:05:09.760Z,9.63
2022-11-22T05:09:15.149Z,9.43
2022-11-22T05:13:33.014Z,10.33
2022-11-22T05:17:38.638Z,10.23
2022-11-22T05:21:43.529Z,11.37
2022-11-22T05:25:48.323Z,9.30
2022-11-22T05:29:53.191Z,11.90
2022-11-22T05:33:58.110Z,10.20
2022-11-22T05:38:02.963Z,10.97
2022-11-22T05:42:07.776Z,10.83
2022-11-22T05:46:22.491Z,10.73
2022-11-22T05:50:29.376Z,16.07
2022-11-22T05:54:34.314Z,12.40
2022-11-22T05:58:39.684Z,11.87
2022-11-22T06:02:44.634Z,11.60
2022-11-22T06:06:49.466Z,10.57
2022-11-22T06:10:54.382Z,11.80
2022-11-22T06:14:59.190Z,12.20
2022-11-22T06:19:04.079Z,11.50
2022-11-22T06:23:08.935Z,11.17
2022-11-22T06:27:13.924Z,11.93
2022-11-22T06:31:25.816Z,12.47
2022-11-22T06:35:30.649Z,12.67
2022-11-22T06:39:35.954Z,12.43
2022-11-22T06:43:46.956Z,11.53
2022-11-22T06:47:53.923Z,13.40
2022-11-22T06:51:58.736Z,11.97
2022-11-22T06:56:06.187Z,12.37
2022-11-22T07:00:11.805Z,11.47
2022-11-22T07:04:16.696Z,13.10
2022-11-22T07:08:22.859Z,12.30
2022-11-22T07:12:27.798Z,12.67
2022-11-22T07:16:32.949Z,11.87
2022-11-22T07:20:37.922Z,11.90
2022-11-22T07:24:42.768Z,11.87
2022-11-22T07:28:48.609Z,11.83
2022-11-22T07:32:53.460Z,11.77
2022-11-22T07:37:00.622Z,13.00
2022-11-22T07:41:09.218Z,11.60
2022-11-22T07:45:14.137Z,11.77
2022-11-22T07:49:19.436Z,11.27
2022-11-22T07:53:24.306Z,13.20
2022-11-22T07:57:29.201Z,11.47
2022-11-22T08:01:34.067Z,11.80
2022-11-22T08:05:39.059Z,11.70
2022-11-22T08:09:43.950Z,11.57
2022-11-22T08:13:48.868Z,11.80
2022-11-22T08:17:54.031Z,11.53
2022-11-22T08:21:59.394Z,11.80
2022-11-22T08:26:05.208Z,11.80
2022-11-22T08:30:11.635Z,13.17
2022-11-22T08:34:16.520Z,12.33
2022-11-22T08:38:21.505Z,12.50
2022-11-22T08:42:26.334Z,10.90
2022-11-22T08:46:31.189Z,12.07
2022-11-22T08:50:36.267Z,10.77
2022-11-22T08:54:41.244Z,11.70
2022-11-22T08:58:46.144Z,11.67
2022-11-22T09:02:51.069Z,11.10
2022-11-22T09:11:21.033Z,11.20
2022-11-22T09:15:26.075Z,11.50
2022-11-22T09:19:31.101Z,10.80
2022-11-22T09:23:37.245Z,11.67
2022-11-22T09:27:42.179Z,11.20
2022-11-22T09:31:47.077Z,11.47
2022-11-22T09:35:51.962Z,11.03
2022-11-22T09:39:56.856Z,12.00
2022-11-22T09:44:31.049Z,12.47
2022-11-22T09:49:10.411Z,11.17
2022-11-22T09:53:49.933Z,9.03
2022-11-22T09:58:11.240Z,12.93
2022-11-22T10:02:25.333Z,10.50
2022-11-22T10:06:34.820Z,12.20
2022-11-22T10:10:52.594Z,11.83
2022-11-22T10:15:39.168Z,11.73
2022-11-22T10:20:14.845Z,11.83
2022-11-22T10:24:19.938Z,11.57
2022-11-22T10:28:38.010Z,11.80
2022-11-22T10:33:13.539Z,11.17
2022-11-22T10:37:48.591Z,12.43
2022-11-22T10:42:30.926Z,11.30
2022-11-22T10:46:57.004Z,12.53
2022-11-22T10:51:27.319Z,12.13
2022-11-22T10:56:02.689Z,12.13
2022-11-22T11:00:24.897Z,10.90
2022-11-22T11:04:35.816Z,11.60
2022-11-22T11:09:36.064Z,11.97
2022-11-22T11:13:26.130Z,10.50
2022-11-22T11:17:37.489Z,11.77
2022-11-22T11:21:42.379Z,11.17
2022-11-22T11:25:49.063Z,11.30
2022-11-22T11:30:04.977Z,11.50
2022-11-22T11:34:26.131Z,11.50
2022-11-22T11:38:41.245Z,10.87
2022-11-22T11:42:46.085Z,11.57
2022-11-22T11:46:50.908Z,12.80
2022-11-22T11:51:18.973Z,11.63
2022-11-22T11:55:25.167Z,11.53
2022-11-22T11:59:39.026Z,11.67
2022-11-22T12:04:02.643Z,11.17
2022-11-22T12:08:33.901Z,15.40
2022-11-22T12:12:54.808Z,12.50
2022-11-22T12:17:06.234Z,11.13
2022-11-22T12:21:39.155Z,11.73
2022-11-22T12:25:45.572Z,12.50
2022-11-22T12:29:50.510Z,11.80
2022-11-22T12:34:00.938Z,12.97
2022-11-22T12:38:10.596Z,13.27
2022-11-22T12:42:24.347Z,12.80
2022-11-22T12:46:39.678Z,13.83
2022-11-22T12:50:53.714Z,12.17
2022-11-22T12:55:17.713Z,12.87
2022-11-22T12:59:47.730Z,12.00
2022-11-22T13:04:13.757Z,14.17
2022-11-22T13:08:43.276Z,12.90
2022-11-22T13:12:49.467Z,12.80
2022-11-22T13:16:54.438Z,12.70
2022-11-22T13:20:59.126Z,13.27
2022-11-22T13:25:31.987Z,14.13
2022-11-22T13:29:40.434Z,12.90
2022-11-22T13:34:00.678Z,13.37
2022-11-22T13:38:17.417Z,13.30
2022-11-22T13:42:28.369Z,10.97
2022-11-22T13:46:54.815Z,13.43
2022-11-22T13:51:00.379Z,12.83
2022-11-22T13:55:33.845Z,13.80
2022-11-22T13:59:42.231Z,13.40
2022-11-22T14:03:47.158Z,12.73
2022-11-22T14:07:54.657Z,13.23
2022-11-22T14:12:31.529Z,14.00
2022-11-22T14:17:04.902Z,12.73
2022-11-22T14:22:09.668Z,12.40
2022-11-22T14:26:20.100Z,11.80
2022-11-22T14:30:51.710Z,14.80
2022-11-22T14:35:05.879Z,12.67
2022-11-22T14:39:45.275Z,13.17
2022-11-22T14:43:53.727Z,13.47
2022-11-22T14:48:21.420Z,12.40
2022-11-22T14:52:32.028Z,12.30
2022-11-22T14:56:37.511Z,13.03
2022-11-22T15:01:23.436Z,13.17
2022-11-22T15:09:12.371Z,15.27
2022-11-22T15:10:57.305Z,13.00
2022-11-22T16:00:50.173Z,14.20
2022-11-22T16:06:08.554Z,14.63
2022-11-22T16:09:38.731Z,14.67
2022-11-22T16:13:43.673Z,14.23
2022-11-22T16:18:16.052Z,14.30
2022-11-22T16:22:32.216Z,16.50
2022-11-22T16:26:37.152Z,14.30
2022-11-22T16:30:45.676Z,16.00
2022-11-22T16:35:03.107Z,15.40
2022-11-22T16:39:15.442Z,15.10
2022-11-22T16:43:23.939Z,14.67
2022-11-22T16:47:28.847Z,14.10
2022-11-22T16:51:34.217Z,15.40
2022-11-22T16:55:39.258Z,15.57
2022-11-22T16:59:44.079Z,13.87
2022-11-22T17:03:53.416Z,14.57
2022-11-22T17:07:58.283Z,15.70
2022-11-22T17:12:06.176Z,16.13
2022-11-22T17:16:12.534Z,17.10
2022-11-22T17:20:17.453Z,16.97
2022-11-22T17:24:23.862Z,15.83
2022-11-22T17:28:28.873Z,15.90
2022-11-22T17:32:33.828Z,16.23
2022-11-22T17:36:39.021Z,15.83
2022-11-22T17:40:46.621Z,17.23
2022-11-22T17:44:51.479Z,16.77
2022-11-22T17:48:59.617Z,16.67
2022-11-22T17:53:04.657Z,16.97
2022-11-22T17:57:09.766Z,15.93
2022-11-22T18:01:18.221Z,17.57
2022-11-22T18:05:23.160Z,16.20
2022-11-22T18:09:28.459Z,15.97
2022-11-22T18:13:37.625Z,16.73
2022-11-22T18:17:42.462Z,14.97
2022-11-22T18:21:47.449Z,16.30
2022-11-22T18:25:52.485Z,16.10
2022-11-22T18:29:58.934Z,15.87
2022-11-22T18:34:04.193Z,16.10
2022-11-22T18:38:09.116Z,16.43
2022-11-22T18:42:15.860Z,14.70
2022-11-22T18:46:20.793Z,14.13
2022-11-22T18:50:25.811Z,16.87
2022-11-22T18:54:30.986Z,16.40
2022-11-22T18:58:37.416Z,16.20
2022-11-22T19:02:42.296Z,17.40
2022-11-22T19:06:47.181Z,16.70
2022-11-22T19:10:58.241Z,16.10
2022-11-22T19:15:03.344Z,18.50
2022-11-22T19:19:11.611Z,17.30
2022-11-22T19:23:16.491Z,15.90
2022-11-22T19:27:21.470Z,16.07
2022-11-22T19:31:29.541Z,16.70
2022-11-22T19:35:36.573Z,15.97
2022-11-22T19:39:41.438Z,22.60
2022-11-22T19:43:47.701Z,19.60
2022-11-22T19:47:52.551Z,17.10
2022-11-22T19:51:57.479Z,18.23
2022-11-22T19:56:05.262Z,18.00
2022-11-22T20:00:11.690Z,18.23
2022-11-22T20:04:16.581Z,17.77
2022-11-22T20:08:21.539Z,18.97
2022-11-22T20:12:26.363Z,18.80
2022-11-22T20:16:32.323Z,17.33
2022-11-22T20:20:37.198Z,17.90
2022-11-22T20:24:42.113Z,19.70
2022-11-22T20:28:48.394Z,18.87
2022-11-22T20:32:54.151Z,17.17
2022-11-22T20:36:59.118Z,19.17
2022-11-22T20:41:05.893Z,18.87
2022-11-22T20:45:11.422Z,18.93
2022-11-22T20:49:16.270Z,18.50
2022-11-22T20:53:21.179Z,19.00
2022-11-22T20:57:27.857Z,19.00
2022-11-22T21:01:33.353Z,17.90
2022-11-22T21:05:38.359Z,17.70
2022-11-22T21:09:43.235Z,18.27
2022-11-22T21:13:49.076Z,20.00
2022-11-22T21:18:23.185Z,18.47
2022-11-22T21:22:20.157Z,19.33
2022-11-22T21:26:26.029Z,19.93
2022-11-22T21:30:30.874Z,19.10
2022-11-22T21:34:35.709Z,17.23
2022-11-22T21:38:40.759Z,18.63
2022-11-22T21:42:45.634Z,19.77
2022-11-22T21:46:51.339Z,19.50
2022-11-22T21:50:57.262Z,18.53
2022-11-22T21:55:02.145Z,17.60
2022-11-22T21:59:06.999Z,17.20
2022-11-22T22:03:12.277Z,20.17
2022-11-22T22:07:36.663Z,18.27
2022-11-22T22:11:45.471Z,18.47
2022-11-22T22:15:57.283Z,17.97
2022-11-22T22:20:02.183Z,18.60
2022-11-22T22:24:11.428Z,19.40
2022-11-22T22:28:16.405Z,18.77
2022-11-22T22:32:21.381Z,18.97
2022-11-22T22:36:27.335Z,18.90
2022-11-22T22:40:32.226Z,19.67
2022-11-22T22:44:37.136Z,18.43
2022-11-22T22:48:42.897Z,18.90
2022-11-22T22:52:47.822Z,18.50
2022-11-22T22:56:52.658Z,18.30
2022-11-22T23:01:15.238Z,17.43
2022-11-22T23:05:20.054Z,18.07
2022-11-22T23:09:25.385Z,19.53
2022-11-22T23:13:30.191Z,17.80
2022-11-22T23:17:35.088Z,18.20
2022-11-22T23:21:40.289Z,18.57
2022-11-22T23:25:45.176Z,17.73
2022-11-22T23:29:49.998Z,17.20
2022-11-22T23:33:54.856Z,18.70
2022-11-22T23:37:59.669Z,19.40
2022-11-22T23:42:04.765Z,17.40
2022-11-22T23:46:17.566Z,20.83
2022-11-22T23:50:22.416Z,19.30
2022-11-22T23:54:28.503Z,17.10
2022-11-22T23:58:34.187Z,19.70
